»·PEaware :: N378SM CL46-1CA1

N378SM :: CL46-1CA1

FLIGHT INFORMATION

Flight Status: Arrived
Operator: Privately registered:
United States
More flights under this callsign
Pilot: Scott M. (2435)
Aircraft: CESSNA 172 SKYHAWK
(C172)
More flights by this aircraft type
Origin: CL46 Quail Lake Sky Park
Canada
Destination: 1CA1 Belridge Strip
United States
More flights between these airports :: More routes between these airports
Route: GMN AVE
File this flight plan on PilotEdge
Remarks:
Altitude:
(Current/Filed)
8,500ft
Speed:
(Current/Filed)
110kts
Departed: 30-Jul-17 02:20 PM
Arrived: 30-Jul-17 03:14 PM
Distance/Time
Traveled:
64nm/0:54
Distance/Time
To Go:
Arrived

Flight Plot

Page will automatically refresh every two minutes.

Flight plan parsing failed; only flown route is shown


Map Options




Map Legend


Flown Route
Filed Route
Departure Airport
Arrival Airport
Navaid (VOR, NDB)
Fix

Horizontal Profiles

Position Reports

Time Latitude Longitude Heading Altitude Ground
Speed
30-Jul-17 14:14 34.767442 -118.732459 6 3373ft 0kts
30-Jul-17 14:15 34.767441 -118.732459 6 3373ft 0kts
30-Jul-17 14:16 34.767441 -118.732459 6 3373ft 0kts
30-Jul-17 14:17 34.767442 -118.732459 6 3373ft 0kts
30-Jul-17 14:18 34.767452 -118.732111 111 3373ft 12kts
30-Jul-17 14:19 34.767130 -118.729878 98 3373ft 7kts
30-Jul-17 14:20 34.766876 -118.727376 1 3373ft 0kts
30-Jul-17 14:21 34.766876 -118.727376 1 3373ft 0kts
30-Jul-17 14:22 34.766876 -118.727376 1 3373ft 0kts
30-Jul-17 14:23 34.767927 -118.733707 276 3429ft 67kts
30-Jul-17 14:24 34.769558 -118.757002 275 4202ft 73kts
30-Jul-17 14:25 34.770991 -118.781184 279 4959ft 77kts
30-Jul-17 14:26 34.781523 -118.804197 287 5705ft 79kts
30-Jul-17 14:27 34.784972 -118.830162 265 6400ft 80kts
30-Jul-17 14:28 34.787167 -118.857862 279 7034ft 85kts
30-Jul-17 14:29 34.803442 -118.877875 358 7632ft 100kts
30-Jul-17 14:30 34.830952 -118.870917 3 8181ft 102kts
30-Jul-17 14:31 34.858666 -118.877711 336 8420ft 110kts
30-Jul-17 14:32 34.887653 -118.891878 335 8439ft 117kts
30-Jul-17 14:33 34.918526 -118.902103 342 8469ft 119kts
30-Jul-17 14:34 34.951209 -118.911073 342 8384ft 125kts
30-Jul-17 14:35 34.984630 -118.918914 344 8241ft 120kts
30-Jul-17 14:36 35.016025 -118.926719 339 8177ft 111kts
30-Jul-17 14:37 35.045510 -118.937798 341 8281ft 114kts
30-Jul-17 14:38 35.076194 -118.946225 341 8568ft 115kts
30-Jul-17 14:39 35.107411 -118.954721 343 8597ft 115kts
30-Jul-17 14:40 35.129354 -118.977600 301 8509ft 110kts
30-Jul-17 14:41 35.146915 -119.007421 296 8466ft 108kts
30-Jul-17 14:42 35.164014 -119.037478 306 8416ft 110kts
30-Jul-17 14:43 35.185488 -119.064227 313 8371ft 112kts
30-Jul-17 14:44 35.207831 -119.089917 307 8328ft 110kts
30-Jul-17 14:45 35.229846 -119.115868 307 8286ft 110kts
30-Jul-17 14:46 35.250472 -119.143199 314 8237ft 112kts
30-Jul-17 14:47 35.268004 -119.165213 295 8210ft 107kts
30-Jul-17 14:48 35.292916 -119.195890 314 8162ft 111kts
30-Jul-17 14:49 35.314300 -119.222117 302 8126ft 108kts
30-Jul-17 14:50 35.329825 -119.246083 298 8092ft 107kts
30-Jul-17 14:51 35.346951 -119.276458 303 7546ft 109kts
30-Jul-17 14:52 35.351293 -119.313824 261 6586ft 101kts
30-Jul-17 14:53 35.350206 -119.347578 268 5698ft 100kts
30-Jul-17 14:54 35.353826 -119.380548 276 4823ft 98kts
30-Jul-17 14:55 35.357054 -119.413025 278 3962ft 96kts
30-Jul-17 14:56 35.356152 -119.445195 267 3111ft 95kts
30-Jul-17 14:57 35.355408 -119.471574 272 2537ft 86kts
30-Jul-17 14:58 35.360374 -119.497973 287 2419ft 82kts
30-Jul-17 14:59 35.367289 -119.524751 289 2430ft 83kts
30-Jul-17 15:00 35.372236 -119.552184 285 2449ft 83kts
30-Jul-17 15:01 35.378431 -119.579353 284 2459ft 83kts
30-Jul-17 15:02 35.381401 -119.607279 270 2573ft 83kts
30-Jul-17 15:03 35.381735 -119.634269 328 2662ft 92kts
30-Jul-17 15:04 35.389535 -119.608867 117 2746ft 110kts
30-Jul-17 15:05 35.397529 -119.589025 327 2711ft 89kts
30-Jul-17 15:06 35.411465 -119.611457 307 2781ft 86kts
30-Jul-17 15:07 35.429343 -119.633174 313 2866ft 92kts
30-Jul-17 15:08 35.448480 -119.652843 314 2877ft 87kts
30-Jul-17 15:09 35.465281 -119.674719 310 2612ft 90kts
30-Jul-17 15:10 35.480437 -119.698033 269 2587ft 91kts
30-Jul-17 15:11 35.461205 -119.719891 218 2594ft 102kts
30-Jul-17 15:12 35.440002 -119.740165 285 2101ft 103kts
30-Jul-17 15:13 35.459393 -119.759114 342 1755ft 86kts
30-Jul-17 15:14 35.463313 -119.729690 133 1542ft 103kts
30-Jul-17 15:15 35.443241 -119.707174 100 1336ft 100kts
30-Jul-17 15:16 35.456299 -119.703972 308 999ft 57kts
30-Jul-17 15:17 35.466016 -119.718995 305 584ft 39kts
30-Jul-17 15:18 35.467561 -119.722163 213 578ft 0kts
30-Jul-17 15:19 35.466560 -119.721016 127 578ft 0kts

Navigation Log

Ident Type
Flight plan parsing failed, navigation log unavailable